createdAt,value
2023-04-09T00:03:59.002Z,3.80
2023-04-09T00:08:00.753Z,3.35
2023-04-09T00:12:03.402Z,3.50
2023-04-09T00:16:05.241Z,3.66
2023-04-09T00:20:07.879Z,3.59
2023-04-09T00:24:09.375Z,3.46
2023-04-09T00:28:10.996Z,3.33
2023-04-09T00:32:12.519Z,3.40
2023-04-09T00:36:14.101Z,3.14
2023-04-09T00:40:15.869Z,3.13
2023-04-09T00:44:17.433Z,3.24
2023-04-09T00:48:19.144Z,3.22
2023-04-09T00:52:21.387Z,2.78
2023-04-09T00:56:23.663Z,2.85
2023-04-09T01:00:25.484Z,2.89
2023-04-09T01:04:27.003Z,2.90
2023-04-09T01:08:33.398Z,3.09
2023-04-09T01:12:52.010Z,3.02
2023-04-09T01:17:05.622Z,2.76
2023-04-09T01:21:13.014Z,2.73
2023-04-09T01:25:50.398Z,2.49
2023-04-09T01:29:53.531Z,2.36
2023-04-09T01:33:55.574Z,2.37
2023-04-09T01:37:58.270Z,2.39
2023-04-09T01:42:00.863Z,2.51
2023-04-09T01:46:03.678Z,2.51
2023-04-09T01:50:05.893Z,2.47
2023-04-09T01:54:07.788Z,2.40
2023-04-09T01:58:09.396Z,2.56
2023-04-09T02:02:18.079Z,2.44
2023-04-09T02:06:34.619Z,2.40
2023-04-09T02:10:39.505Z,2.23
2023-04-09T02:14:41.453Z,2.14
2023-04-09T02:18:42.970Z,1.96
2023-04-09T02:22:45.663Z,1.98
2023-04-09T02:26:47.249Z,1.68
2023-04-09T02:30:48.719Z,1.03
2023-04-09T02:34:50.137Z,1.62
2023-04-09T02:38:51.784Z,1.69
2023-04-09T02:42:53.928Z,1.79
2023-04-09T02:46:56.215Z,1.64
2023-04-09T02:50:57.665Z,1.57
2023-04-09T02:54:59.082Z,1.55
2023-04-09T02:59:00.546Z,1.38
2023-04-09T03:03:02.309Z,1.36
2023-04-09T03:07:03.869Z,1.36
2023-04-09T03:11:05.380Z,1.34
2023-04-09T03:15:07.311Z,1.22
2023-04-09T03:19:08.777Z,1.20
2023-04-09T03:23:10.830Z,0.91
2023-04-09T03:27:12.256Z,1.02
2023-04-09T03:31:14.172Z,1.02
2023-04-09T03:35:15.817Z,1.16
2023-04-09T03:39:17.323Z,1.21
2023-04-09T03:43:18.768Z,1.14
2023-04-09T03:47:20.668Z,1.30
2023-04-09T03:51:22.160Z,1.34
2023-04-09T03:55:23.674Z,1.11
2023-04-09T03:59:25.259Z,1.15
2023-04-09T04:03:26.981Z,1.17
2023-04-09T04:07:28.458Z,1.06
2023-04-09T04:11:30.374Z,0.98
2023-04-09T04:15:31.895Z,1.13
2023-04-09T04:19:33.305Z,1.09
2023-04-09T04:23:34.817Z,0.98
2023-04-09T04:27:36.253Z,1.15
2023-04-09T04:31:37.776Z,1.22
2023-04-09T04:35:39.334Z,1.23
2023-04-09T04:39:40.876Z,1.14
2023-04-09T04:43:42.348Z,1.17
2023-04-09T04:47:43.824Z,1.11
2023-04-09T04:51:45.332Z,1.14
2023-04-09T04:55:46.937Z,1.21
2023-04-09T04:59:48.438Z,1.23
2023-04-09T05:03:49.986Z,1.20
2023-04-09T05:07:51.674Z,1.11
2023-04-09T05:11:53.190Z,0.49
2023-04-09T05:15:54.683Z,0.74
2023-04-09T05:19:57.779Z,1.07
2023-04-09T05:23:59.213Z,1.20
2023-04-09T05:28:00.879Z,1.28
2023-04-09T05:32:02.568Z,1.05
2023-04-09T05:36:04.789Z,1.46
2023-04-09T05:40:06.765Z,1.58
2023-04-09T05:44:08.233Z,1.68
2023-04-09T05:48:09.759Z,1.59
2023-04-09T05:52:11.267Z,1.56
2023-04-09T05:56:16.151Z,1.86
2023-04-09T06:00:18.371Z,1.90
2023-04-09T06:04:20.071Z,1.84
2023-04-09T06:08:21.617Z,2.14
2023-04-09T06:12:23.055Z,2.48
2023-04-09T06:16:24.506Z,2.65
2023-04-09T06:20:26.071Z,2.77
2023-04-09T06:24:27.490Z,3.02
2023-04-09T06:28:29.600Z,3.16
2023-04-09T06:32:33.607Z,3.27
2023-04-09T06:36:40.503Z,3.44
2023-04-09T06:40:42.528Z,3.70
2023-04-09T06:44:43.973Z,3.56
2023-04-09T06:48:46.414Z,3.97
2023-04-09T06:52:48.241Z,4.21
2023-04-09T06:56:49.730Z,4.31
2023-04-09T07:00:51.187Z,4.52
2023-04-09T07:04:52.875Z,4.82
2023-04-09T07:08:54.602Z,4.89
2023-04-09T07:12:56.507Z,4.97
2023-04-09T07:16:57.943Z,5.33
2023-04-09T07:20:59.497Z,5.47
2023-04-09T07:25:01.078Z,5.72
2023-04-09T07:29:03.771Z,5.94
2023-04-09T07:33:05.335Z,6.22
2023-04-09T07:37:06.866Z,6.34
2023-04-09T07:41:11.055Z,5.96
2023-04-09T07:45:12.627Z,6.34
2023-04-09T07:49:14.277Z,6.47
2023-04-09T07:53:16.497Z,6.46
2023-04-09T07:57:18.005Z,6.36
2023-04-09T08:01:24.635Z,6.61
2023-04-09T08:05:26.283Z,6.84
2023-04-09T08:09:27.694Z,6.86
2023-04-09T08:13:29.111Z,7.39
2023-04-09T08:17:31.232Z,7.67
2023-04-09T08:21:32.862Z,7.64
2023-04-09T08:25:34.323Z,7.71
2023-04-09T08:29:35.980Z,7.48
2023-04-09T08:33:37.870Z,8.22
2023-04-09T08:37:39.560Z,8.07
2023-04-09T08:41:46.225Z,8.38
2023-04-09T08:45:51.375Z,8.51
2023-04-09T08:49:52.912Z,8.50
2023-04-09T08:54:03.913Z,8.31
2023-04-09T08:58:10.717Z,8.95
2023-04-09T09:02:12.670Z,8.99
2023-04-09T09:06:21.902Z,8.70
2023-04-09T09:10:37.415Z,9.06
2023-04-09T09:14:38.871Z,9.56
2023-04-09T09:18:42.775Z,9.83
2023-04-09T09:22:54.863Z,10.12
2023-04-09T09:26:59.549Z,10.19
2023-04-09T09:31:11.089Z,10.85
2023-04-09T09:35:12.712Z,10.93
2023-04-09T09:39:17.243Z,10.48
2023-04-09T09:43:18.697Z,9.92
2023-04-09T09:47:21.823Z,10.73
2023-04-09T09:51:27.742Z,11.56
2023-04-09T09:55:32.275Z,11.61
2023-04-09T09:59:39.556Z,11.77
2023-04-09T10:03:44.191Z,11.14
2023-04-09T10:07:46.507Z,11.97
2023-04-09T10:11:48.832Z,12.13
2023-04-09T10:15:52.043Z,12.33
2023-04-09T10:20:11.611Z,13.00
2023-04-09T10:24:13.716Z,13.46
2023-04-09T10:28:17.547Z,13.35
2023-04-09T10:32:26.486Z,13.27
2023-04-09T10:36:31.537Z,13.14
2023-04-09T10:40:33.064Z,13.48
2023-04-09T10:44:38.059Z,12.77
2023-04-09T10:48:39.512Z,13.41
2023-04-09T10:52:42.344Z,14.62
2023-04-09T10:57:16.444Z,14.81
2023-04-09T11:01:24.264Z,14.92
2023-04-09T11:05:28.384Z,14.48
2023-04-09T11:09:29.799Z,14.15
2023-04-09T11:13:32.502Z,13.99
2023-04-09T11:17:36.969Z,14.78
2023-04-09T11:21:46.136Z,15.19
2023-04-09T11:25:51.690Z,15.54
2023-04-09T11:29:56.508Z,15.42
2023-04-09T11:33:57.948Z,14.27
2023-04-09T11:37:59.471Z,15.03
2023-04-09T11:42:01.853Z,14.52
2023-04-09T11:46:04.614Z,14.54
2023-04-09T11:50:07.955Z,14.05
2023-04-09T11:54:11.629Z,14.62
2023-04-09T11:58:13.286Z,14.46
2023-04-09T12:02:19.227Z,15.65
2023-04-09T12:06:25.100Z,15.66
2023-04-09T12:10:32.188Z,15.65
2023-04-09T12:14:34.927Z,16.76
2023-04-09T12:18:38.155Z,17.05
2023-04-09T12:22:41.248Z,17.22
2023-04-09T12:26:43.550Z,15.73
2023-04-09T12:30:45.350Z,16.33
2023-04-09T12:34:47.401Z,15.77
2023-04-09T12:38:48.871Z,15.34
2023-04-09T12:42:50.372Z,15.18
2023-04-09T12:46:51.898Z,16.74
2023-04-09T12:50:53.489Z,17.18
2023-04-09T12:54:55.072Z,18.28
2023-04-09T12:58:56.793Z,18.35
2023-04-09T13:02:58.410Z,18.58
2023-04-09T13:06:59.946Z,18.05
2023-04-09T13:11:01.623Z,18.82
2023-04-09T13:15:03.874Z,18.92
2023-04-09T13:19:06.807Z,18.84
2023-04-09T13:23:08.292Z,19.61
2023-04-09T13:27:11.193Z,19.48
2023-04-09T13:31:12.857Z,19.60
2023-04-09T13:35:14.544Z,19.82
2023-04-09T13:39:16.104Z,19.43
2023-04-09T13:43:17.635Z,19.94
2023-04-09T13:47:19.445Z,18.63
2023-04-09T13:51:24.074Z,19.42
2023-04-09T13:55:25.789Z,18.81
2023-04-09T13:59:27.307Z,19.99
2023-04-09T14:03:28.793Z,20.09
2023-04-09T14:07:30.802Z,18.44
2023-04-09T14:11:32.347Z,18.31
2023-04-09T14:15:34.899Z,19.74
2023-04-09T14:19:36.342Z,20.64
2023-04-09T14:23:39.490Z,18.92
2023-04-09T14:27:41.111Z,19.72
2023-04-09T14:31:42.806Z,20.29
2023-04-09T14:35:44.511Z,20.53
2023-04-09T14:39:46.008Z,20.15
2023-04-09T14:43:47.477Z,19.54
2023-04-09T14:47:48.991Z,18.35
2023-04-09T14:51:50.560Z,19.38
2023-04-09T14:55:51.978Z,20.13
2023-04-09T14:59:53.402Z,18.31
2023-04-09T15:03:55.233Z,19.59
2023-04-09T15:07:57.238Z,18.87
2023-04-09T15:11:58.695Z,18.47
2023-04-09T15:16:00.459Z,19.26
2023-04-09T15:20:02.046Z,18.14
2023-04-09T15:24:03.741Z,18.10
2023-04-09T15:28:06.364Z,18.46
2023-04-09T15:32:07.890Z,17.72
2023-04-09T15:36:09.484Z,17.54
2023-04-09T15:40:11.516Z,17.27
2023-04-09T15:44:12.941Z,17.89
2023-04-09T15:48:14.535Z,17.90
2023-04-09T15:52:16.088Z,17.74
2023-04-09T15:56:17.532Z,17.26
2023-04-09T16:00:19.049Z,17.33
2023-04-09T16:04:20.683Z,17.30
2023-04-09T16:08:22.098Z,15.74
2023-04-09T16:12:24.753Z,16.96
2023-04-09T16:16:26.258Z,17.60
2023-04-09T16:20:29.289Z,17.92
2023-04-09T16:24:31.622Z,17.85
2023-04-09T16:28:33.166Z,17.58
2023-04-09T16:32:34.670Z,17.47
2023-04-09T16:36:38.736Z,17.42
2023-04-09T16:40:40.477Z,16.63
2023-04-09T16:44:42.093Z,17.13
2023-04-09T16:48:43.574Z,16.90
2023-04-09T16:52:45.062Z,17.40
2023-04-09T16:56:48.384Z,17.60
2023-04-09T17:00:51.874Z,16.97
2023-04-09T17:04:53.945Z,16.61
2023-04-09T17:08:55.430Z,16.35
2023-04-09T17:12:56.849Z,16.17
2023-04-09T17:16:58.339Z,15.48
2023-04-09T17:20:59.934Z,15.98
2023-04-09T17:25:01.895Z,15.47
2023-04-09T17:29:03.423Z,15.02
2023-04-09T17:33:04.934Z,14.26
2023-04-09T17:37:06.462Z,13.93
2023-04-09T17:41:07.885Z,13.94
2023-04-09T17:45:09.848Z,13.59
2023-04-09T17:49:11.865Z,13.36
2023-04-09T17:53:13.406Z,12.87
2023-04-09T17:57:15.416Z,12.72
2023-04-09T18:01:17.029Z,12.77
2023-04-09T18:05:18.613Z,12.62
2023-04-09T18:09:20.343Z,11.98
2023-04-09T18:13:22.929Z,12.14
2023-04-09T18:17:26.208Z,12.09
2023-04-09T18:21:28.535Z,11.81
2023-04-09T18:25:30.240Z,11.79
2023-04-09T18:29:31.930Z,11.36
2023-04-09T18:33:34.122Z,11.16
2023-04-09T18:37:35.626Z,11.43
2023-04-09T18:41:37.123Z,11.23
2023-04-09T18:45:42.012Z,11.27
2023-04-09T18:49:43.532Z,11.26
2023-04-09T18:53:45.219Z,11.16
2023-04-09T18:57:47.203Z,11.04
2023-04-09T19:01:48.796Z,10.85
2023-04-09T19:05:51.314Z,10.64
2023-04-09T19:09:52.794Z,10.70
2023-04-09T19:13:54.242Z,10.50
2023-04-09T19:17:56.827Z,10.58
2023-04-09T19:21:58.634Z,10.50
2023-04-09T19:26:01.118Z,10.35
2023-04-09T19:30:04.705Z,10.22
2023-04-09T19:34:06.389Z,10.24
2023-04-09T19:38:08.193Z,10.23
2023-04-09T19:42:09.841Z,10.12
2023-04-09T19:46:11.463Z,9.98
2023-04-09T19:50:13.354Z,9.78
2023-04-09T19:54:16.530Z,9.34
2023-04-09T19:58:17.991Z,9.54
2023-04-09T20:02:19.831Z,9.48
2023-04-09T20:06:21.902Z,9.09
2023-04-09T20:10:23.427Z,8.85
2023-04-09T20:14:25.053Z,9.22
2023-04-09T20:18:26.653Z,9.27
2023-04-09T20:22:28.974Z,9.04
2023-04-09T20:26:30.978Z,9.06
2023-04-09T20:30:32.583Z,9.11
2023-04-09T20:34:34.046Z,8.98
2023-04-09T20:38:35.577Z,9.03
2023-04-09T20:42:38.428Z,9.03
2023-04-09T20:46:39.912Z,8.90
2023-04-09T20:50:42.062Z,8.38
2023-04-09T20:54:43.511Z,8.77
2023-04-09T20:58:45.083Z,8.71
2023-04-09T21:02:46.664Z,8.96
2023-04-09T21:06:48.266Z,9.03
2023-04-09T21:10:49.665Z,9.10
2023-04-09T21:14:51.094Z,8.89
2023-04-09T21:18:53.089Z,8.77
2023-04-09T21:22:54.864Z,8.75
2023-04-09T21:26:56.814Z,8.49
2023-04-09T21:30:58.451Z,8.13
2023-04-09T21:35:00.025Z,8.06
2023-04-09T21:39:01.580Z,7.66
2023-04-09T21:43:03.174Z,7.92
2023-04-09T21:47:07.529Z,7.82
2023-04-09T21:51:10.548Z,6.96
2023-04-09T21:55:12.017Z,7.53
2023-04-09T21:59:13.440Z,7.73
2023-04-09T22:03:15.864Z,7.74
2023-04-09T22:07:17.435Z,7.35
2023-04-09T22:11:19.204Z,7.54
2023-04-09T22:15:21.878Z,7.41
2023-04-09T22:19:26.073Z,7.30
2023-04-09T22:23:27.573Z,7.21
2023-04-09T22:27:29.028Z,7.25
2023-04-09T22:31:30.469Z,7.13
2023-04-09T22:35:32.113Z,7.09
2023-04-09T22:39:33.615Z,6.87
2023-04-09T22:43:35.071Z,6.79
2023-04-09T22:47:37.204Z,6.59
2023-04-09T22:51:41.383Z,6.59
2023-04-09T22:55:43.264Z,6.63
2023-04-09T22:59:44.763Z,6.58
2023-04-09T23:03:46.429Z,6.55
2023-04-09T23:07:48.150Z,6.43
2023-04-09T23:11:49.624Z,6.36
2023-04-09T23:15:51.137Z,6.39
2023-04-09T23:19:52.691Z,6.26
2023-04-09T23:23:54.259Z,6.20
2023-04-09T23:27:55.882Z,6.12
2023-04-09T23:31:57.347Z,5.98
2023-04-09T23:35:58.798Z,5.99
2023-04-09T23:40:00.345Z,5.93
2023-04-09T23:44:01.893Z,5.76
2023-04-09T23:48:07.281Z,5.83
2023-04-09T23:52:08.783Z,6.03
2023-04-09T23:56:10.210Z,5.89
